Hlavní strana
METAR-TAF:

METAR-TAF

Letiště :

Vardø, Norsko

zeměpisná šířka: 70-21N, zeměpisná délka: 031-03E, výška: 12 m

Aktuální stav počasí

Zpráva byla vytvořena před 18 minutami, v 12:50 UTC
Západní vítr 18 kt
Teplota 1°C
Vlhkost vzduchu 80%
Tlak 985 hPa
Viditelnost 10 km a více
Skoro jasno ve výšce 2100 ft
Polojasno ve výšce 4100 ft

METAR: ENSS 011250Z 26018KT 9999 FEW021 SCT041 01/M02 Q0985 RMK WIND 500FT 26028KT

Čas: 14:08 (13:08 UTC)


TAF: chybějící

Stav a předpovědi počasí z více než 4 000 letišť (zprávy METAR a TAF).

Červené a žluté tečky na mapě představují dostupné meteorologické stanice.

Když kurzor umístíte na tečku, zobrazí se název stanice.

Pak kliknutím zobrazíte stav a předpověď počasí.

Chcete-li změnit mapu, kliknutím na zelené tlačítko se znaménkem +mapu přiblížíte, kliknutím na zelené tlačítko se znaménkem – mapu oddálíte a kliknutím na zelené šipky přejdete na sousední mapy.


METAR-TAF: